Time;durP1;ratioP1;P1;durP2;ratioP2;P2;SDS_P1;SDS_P2;PMS_P1;PMS_P2;Temp;Humidity;BMP_temperature;BMP_pressure;BME280_temperature;BME280_humidity;BME280_pressure;Samples;Min_cycle;Max_cycle;Signal;HPM_P1;HPM_P2
2023/11/21 00:00:52;;;;;;;37.22;19.75;;;10.60;99.90;;;;;;5042253;28;20209;-72
2023/11/21 00:03:20;;;;;;;40.08;20.27;;;10.50;99.90;;;;;;5053813;28;20282;-72
2023/11/21 00:05:47;;;;;;;46.90;19.48;;;10.60;99.90;;;;;;5053863;28;20290;-74
2023/11/21 00:08:14;;;;;;;43.58;21.10;;;10.60;99.90;;;;;;5040930;28;20213;-74
2023/11/21 00:10:41;;;;;;;34.40;19.52;;;10.50;99.90;;;;;;5053446;28;20230;-74
2023/11/21 00:13:08;;;;;;;42.53;23.23;;;10.50;99.90;;;;;;5052245;28;20590;-75
2023/11/21 00:15:35;;;;;;;46.88;23.20;;;10.50;99.90;;;;;;5051630;28;20640;-75
2023/11/21 00:18:02;;;;;;;48.75;22.38;;;10.40;99.90;;;;;;5047249;28;20205;-74
2023/11/21 00:20:30;;;;;;;29.10;17.80;;;10.40;99.90;;;;;;5052664;28;20202;-72
2023/11/21 00:22:57;;;;;;;49.63;23.58;;;10.40;99.90;;;;;;5042597;28;20281;-76
2023/11/21 00:25:25;;;;;;;55.30;20.75;;;10.30;99.90;;;;;;5046470;28;20318;-75
2023/11/21 00:27:52;;;;;;;43.53;23.00;;;10.30;99.90;;;;;;5053145;28;20211;-74
2023/11/21 00:30:20;;;;;;;35.17;19.25;;;10.30;99.90;;;;;;5053502;28;20294;-74
2023/11/21 00:32:46;;;;;;;48.13;22.15;;;10.40;99.90;;;;;;5049361;28;20221;-73
2023/11/21 00:35:13;;;;;;;42.58;19.58;;;10.40;99.90;;;;;;5051467;28;20728;-72
2023/11/21 00:37:42;;;;;;;44.50;21.38;;;10.40;99.90;;;;;;5045647;28;20205;-73
2023/11/21 00:40:10;;;;;;;44.65;22.33;;;10.40;99.90;;;;;;5053647;28;20227;-72
2023/11/21 00:42:37;;;;;;;34.45;18.35;;;10.50;99.90;;;;;;5053099;28;20252;-73
2023/11/21 00:45:06;;;;;;;40.35;21.27;;;10.50;99.90;;;;;;5053414;28;20231;-74
2023/11/21 00:47:32;;;;;;;42.45;17.80;;;10.50;99.90;;;;;;5052679;28;20193;-75
2023/11/21 00:49:59;;;;;;;44.00;20.23;;;10.60;99.90;;;;;;5053247;28;20292;-73
2023/11/21 00:52:26;;;;;;;36.67;18.67;;;10.60;99.90;;;;;;5051662;28;20284;-76
2023/11/21 00:54:55;;;;;;;29.92;16.80;;;10.60;99.90;;;;;;5053226;28;20737;-74
2023/11/21 00:57:22;;;;;;;32.25;18.17;;;10.60;99.90;;;;;;5052516;28;20575;-76
2023/11/21 00:59:48;;;;;;;48.25;21.25;;;10.60;99.90;;;;;;5053919;28;20258;-73
2023/11/21 01:02:16;;;;;;;38.38;18.63;;;10.70;99.90;;;;;;5053214;28;20204;-73
2023/11/21 01:04:43;;;;;;;36.97;20.48;;;10.70;99.90;;;;;;5055659;28;20237;-75
2023/11/21 01:07:11;;;;;;;40.10;18.33;;;10.60;99.90;;;;;;5048888;28;20206;-75
2023/11/21 01:09:38;;;;;;;31.13;19.45;;;10.60;99.90;;;;;;5055297;28;20280;-73
2023/11/21 01:12:08;;;;;;;51.75;19.67;;;10.60;99.90;;;;;;5044765;28;20805;-74
2023/11/21 01:14:36;;;;;;;46.13;21.75;;;10.60;99.90;;;;;;5044315;28;20327;-73
2023/11/21 01:17:04;;;;;;;33.75;18.50;;;10.60;99.90;;;;;;5048317;28;20205;-74
2023/11/21 01:19:31;;;;;;;40.60;22.50;;;10.60;99.90;;;;;;5046113;28;20239;-74
2023/11/21 01:21:58;;;;;;;39.83;23.42;;;10.60;99.90;;;;;;5052333;28;20279;-73
2023/11/21 01:24:24;;;;;;;36.92;22.05;;;10.60;99.90;;;;;;5052453;28;20232;-77
2023/11/21 01:26:51;;;;;;;42.75;22.00;;;10.70;99.90;;;;;;5052171;28;20204;-73
2023/11/21 01:29:20;;;;;;;37.33;21.02;;;10.60;99.90;;;;;;5045732;28;20204;-75
2023/11/21 01:31:47;;;;;;;50.95;26.30;;;10.60;99.90;;;;;;5044859;28;20287;-75
2023/11/21 01:34:14;;;;;;;38.78;23.35;;;10.60;99.90;;;;;;5055557;28;20246;-75
2023/11/21 01:36:41;;;;;;;33.70;21.38;;;10.60;99.90;;;;;;5058127;28;20200;-76
2023/11/21 01:39:10;;;;;;;38.30;23.67;;;10.60;99.90;;;;;;5052395;28;20285;-77
2023/11/21 01:41:37;;;;;;;39.30;22.85;;;10.70;99.90;;;;;;5046056;28;20206;-74
2023/11/21 01:44:10;;;;;;;45.78;26.17;;;10.60;99.90;;;;;;5047190;28;20273;-76
2023/11/21 01:46:40;;;;;;;54.38;26.60;;;10.60;99.90;;;;;;5048298;28;20286;-76
2023/11/21 01:49:09;;;;;;;52.22;24.88;;;10.60;99.90;;;;;;5044995;28;20257;-73
2023/11/21 01:51:38;;;;;;;43.80;25.55;;;10.70;99.90;;;;;;5040868;28;20229;-76
2023/11/21 01:54:06;;;;;;;40.42;23.55;;;10.70;99.90;;;;;;5049941;28;20239;-76
2023/11/21 01:56:33;;;;;;;35.47;22.58;;;10.60;99.90;;;;;;5051121;28;20649;-75
2023/11/21 01:59:00;;;;;;;43.00;22.80;;;10.60;99.90;;;;;;5057181;28;20211;-75
2023/11/21 02:01:27;;;;;;;29.05;17.77;;;10.60;99.90;;;;;;5051569;28;20208;-74
2023/11/21 02:03:56;;;;;;;29.40;18.67;;;10.80;99.90;;;;;;5056081;28;20300;-75
2023/11/21 02:06:24;;;;;;;33.17;17.70;;;10.70;99.90;;;;;;5050532;28;20656;-74
2023/11/21 02:08:51;;;;;;;35.17;18.15;;;10.70;99.90;;;;;;5052918;28;20222;-73
2023/11/21 02:11:19;;;;;;;29.17;19.17;;;10.80;99.90;;;;;;5041730;28;20240;-74
2023/11/21 02:13:47;;;;;;;38.40;20.65;;;10.80;99.90;;;;;;5052500;28;20656;-76
2023/11/21 02:16:14;;;;;;;36.70;19.88;;;10.80;99.90;;;;;;5051275;28;20232;-76
2023/11/21 02:18:42;;;;;;;24.98;17.02;;;10.80;99.90;;;;;;5048680;28;20202;-73
2023/11/21 02:21:11;;;;;;;33.78;18.60;;;10.80;99.90;;;;;;5052040;28;20213;-74
2023/11/21 02:23:42;;;;;;;29.67;20.17;;;10.90;99.90;;;;;;5051601;28;20257;-73
2023/11/21 02:26:09;;;;;;;30.13;17.85;;;10.90;99.90;;;;;;5051945;28;20201;-76
2023/11/21 02:28:36;;;;;;;36.80;20.27;;;11.00;99.90;;;;;;5050871;28;20204;-76
2023/11/21 02:31:04;;;;;;;33.88;19.48;;;11.00;99.90;;;;;;5051464;28;20633;-76
2023/11/21 02:33:33;;;;;;;33.58;19.27;;;11.10;99.90;;;;;;5051745;28;20730;-76
2023/11/21 02:36:00;;;;;;;28.35;19.15;;;11.10;99.90;;;;;;5046197;28;20203;-74
2023/11/21 02:38:27;;;;;;;35.70;21.55;;;11.10;99.90;;;;;;5049676;28;20754;-77
2023/11/21 02:41:00;;;;;;;25.13;16.80;;;11.20;99.90;;;;;;5048090;28;20242;-75
2023/11/21 02:43:27;;;;;;;23.67;17.55;;;11.10;99.90;;;;;;5053599;28;20606;-76
2023/11/21 02:45:54;;;;;;;28.17;17.92;;;11.20;99.90;;;;;;5052277;28;20259;-74
2023/11/21 02:48:23;;;;;;;19.92;15.90;;;11.30;99.90;;;;;;5060349;28;20293;-76
2023/11/21 02:50:50;;;;;;;22.17;16.63;;;11.30;99.90;;;;;;5053056;28;20266;-76
2023/11/21 02:53:17;;;;;;;35.20;16.95;;;11.30;99.90;;;;;;5051997;28;20286;-75
2023/11/21 02:55:46;;;;;;;27.27;17.02;;;11.20;99.90;;;;;;5055017;28;20213;-73
2023/11/21 02:58:14;;;;;;;18.55;12.82;;;11.20;99.90;;;;;;5049244;28;20314;-75
2023/11/21 03:00:42;;;;;;;27.48;16.30;;;11.20;99.90;;;;;;5052900;28;20230;-75
2023/11/21 03:03:09;;;;;;;19.83;13.05;;;11.20;99.90;;;;;;5059397;28;20283;-74
2023/11/21 03:05:37;;;;;;;24.23;15.02;;;11.30;99.90;;;;;;5051873;28;20278;-72
2023/11/21 03:08:04;;;;;;;21.98;14.88;;;11.30;99.90;;;;;;5043440;28;20196;-76
2023/11/21 03:10:32;;;;;;;22.98;17.08;;;11.30;99.90;;;;;;5045992;28;20211;-74
2023/11/21 03:12:58;;;;;;;27.77;18.77;;;11.30;99.90;;;;;;5051105;28;20320;-73
2023/11/21 03:15:27;;;;;;;27.48;16.88;;;11.30;99.90;;;;;;5060599;28;20720;-74
2023/11/21 03:17:54;;;;;;;25.48;15.40;;;11.20;99.90;;;;;;5046286;28;20232;-77
2023/11/21 03:20:20;;;;;;;28.02;16.23;;;11.20;99.90;;;;;;5043351;28;20216;-75
2023/11/21 03:22:47;;;;;;;26.70;17.17;;;11.30;99.90;;;;;;5052480;28;20623;-75
2023/11/21 03:25:15;;;;;;;35.65;19.17;;;11.30;99.90;;;;;;5052707;28;20310;-76
2023/11/21 03:27:44;;;;;;;33.97;21.00;;;11.30;99.90;;;;;;5053669;28;20287;-74
2023/11/21 03:30:12;;;;;;;31.65;18.55;;;11.30;99.90;;;;;;5054794;28;20208;-74
2023/11/21 03:32:40;;;;;;;38.90;21.05;;;11.30;99.90;;;;;;5051238;28;21742;-75
2023/11/21 03:35:07;;;;;;;34.95;19.73;;;11.20;99.90;;;;;;5054458;28;20307;-74
2023/11/21 03:37:35;;;;;;;40.20;20.73;;;11.10;99.90;;;;;;5050692;28;20283;-73
2023/11/21 03:40:03;;;;;;;38.92;22.25;;;11.10;99.90;;;;;;5055108;28;20197;-74
2023/11/21 03:42:30;;;;;;;26.98;18.50;;;11.00;99.90;;;;;;5059042;28;20631;-75
2023/11/21 03:44:56;;;;;;;48.92;24.63;;;11.00;99.90;;;;;;5056688;28;20567;-75
2023/11/21 03:47:23;;;;;;;42.13;23.00;;;10.90;99.90;;;;;;5054464;28;20289;-73
2023/11/21 03:49:53;;;;;;;42.85;24.70;;;10.90;99.90;;;;;;5055110;28;20497;-75
2023/11/21 03:52:19;;;;;;;40.05;23.35;;;10.90;99.90;;;;;;5054564;28;20632;-76
2023/11/21 03:54:46;;;;;;;55.45;28.95;;;10.90;99.90;;;;;;5052115;28;20745;-76
2023/11/21 03:57:13;;;;;;;47.00;26.25;;;10.90;99.90;;;;;;5069787;23;20256;-87
2023/11/21 03:59:42;;;;;;;49.28;26.50;;;10.90;99.90;;;;;;5040309;28;20228;-85
2023/11/21 04:02:11;;;;;;;40.10;23.02;;;10.90;99.90;;;;;;5044639;28;20542;-87
2023/11/21 04:04:38;;;;;;;55.65;28.08;;;10.80;99.90;;;;;;5046065;28;20225;-85
2023/11/21 04:07:06;;;;;;;46.95;26.30;;;10.90;99.90;;;;;;5048144;28;20223;-87
2023/11/21 04:09:36;;;;;;;48.85;26.65;;;10.80;99.90;;;;;;5033903;28;20229;-87
2023/11/21 04:12:03;;;;;;;51.75;28.52;;;10.80;99.90;;;;;;5039951;28;20195;-86
2023/11/21 04:14:30;;;;;;;38.78;26.50;;;10.70;99.90;;;;;;5032394;28;20283;-86
2023/11/21 04:16:57;;;;;;;40.00;25.52;;;10.60;99.90;;;;;;5036354;28;20252;-86
2023/11/21 04:19:24;;;;;;;44.10;27.50;;;10.50;99.90;;;;;;5026642;28;20693;-85
2023/11/21 04:21:51;;;;;;;40.65;28.63;;;10.40;99.90;;;;;;5040181;28;20267;-85
2023/11/21 04:24:19;;;;;;;44.78;29.67;;;10.40;99.90;;;;;;5040737;28;20269;-85
2023/11/21 04:26:46;;;;;;;45.05;29.75;;;10.50;99.90;;;;;;5038191;28;20688;-85
2023/11/21 04:29:13;;;;;;;44.22;28.08;;;10.40;99.90;;;;;;5032182;28;20214;-85
2023/11/21 04:31:41;;;;;;;40.80;29.50;;;10.40;99.90;;;;;;5033908;28;20674;-86
2023/11/21 04:34:08;;;;;;;29.95;22.77;;;10.40;99.90;;;;;;5040035;28;20217;-87
2023/11/21 04:36:35;;;;;;;43.05;29.17;;;10.50;99.90;;;;;;5040979;28;20254;-86
2023/11/21 04:39:02;;;;;;;35.95;23.48;;;10.40;99.90;;;;;;5040143;28;20215;-86
2023/11/21 04:41:31;;;;;;;32.78;22.80;;;10.30;99.90;;;;;;5037895;28;20297;-86
2023/11/21 04:43:58;;;;;;;20.20;16.15;;;10.30;99.90;;;;;;5035501;28;20213;-86
2023/11/21 04:46:25;;;;;;;20.17;15.68;;;10.10;99.90;;;;;;5037334;28;20325;-85
2023/11/21 04:48:52;;;;;;;19.95;14.60;;;10.20;99.90;;;;;;5037950;28;20219;-86
2023/11/21 04:51:19;;;;;;;19.75;14.50;;;10.20;99.90;;;;;;5049376;28;20319;-86
2023/11/21 04:53:46;;;;;;;14.93;11.20;;;10.00;99.90;;;;;;5040552;28;20254;-85
2023/11/21 04:56:13;;;;;;;12.85;11.02;;;10.00;99.90;;;;;;5032610;28;20204;-85
2023/11/21 04:58:42;;;;;;;14.45;11.40;;;9.90;99.90;;;;;;5029218;28;20205;-85
2023/11/21 05:01:09;;;;;;;16.23;12.60;;;9.80;99.90;;;;;;5030199;28;20204;-84
2023/11/21 05:03:38;;;;;;;14.55;12.18;;;9.80;99.90;;;;;;5042028;28;20205;-86
2023/11/21 05:06:06;;;;;;;16.08;12.23;;;9.80;99.90;;;;;;5039876;28;20219;-86
2023/11/21 05:08:33;;;;;;;17.40;11.73;;;9.80;99.90;;;;;;5040636;28;20232;-85
2023/11/21 05:11:01;;;;;;;15.50;11.82;;;9.80;99.90;;;;;;5035763;28;20260;-86
2023/11/21 05:13:28;;;;;;;17.15;13.43;;;9.90;99.90;;;;;;5039734;28;20593;-85
2023/11/21 05:15:57;;;;;;;16.65;12.07;;;9.80;99.90;;;;;;5035165;28;20232;-86
2023/11/21 05:18:26;;;;;;;14.00;11.05;;;9.80;99.90;;;;;;5042303;28;20224;-86
2023/11/21 05:20:53;;;;;;;13.30;10.65;;;9.80;99.90;;;;;;5037913;28;20287;-86
2023/11/21 05:23:20;;;;;;;15.32;9.90;;;9.80;99.90;;;;;;5034607;28;20212;-85
2023/11/21 05:25:47;;;;;;;13.13;11.02;;;9.90;99.90;;;;;;5040654;28;20206;-85
2023/11/21 05:28:14;;;;;;;12.88;11.20;;;9.80;99.90;;;;;;5039396;28;20235;-85
2023/11/21 05:30:41;;;;;;;11.20;9.82;;;9.80;99.90;;;;;;5047120;28;20200;-85
2023/11/21 05:33:09;;;;;;;15.18;11.45;;;9.80;99.90;;;;;;5048697;28;20199;-85
2023/11/21 05:35:37;;;;;;;11.68;10.20;;;9.80;99.90;;;;;;5043167;28;20272;-85
2023/11/21 05:38:05;;;;;;;12.27;9.23;;;9.80;99.90;;;;;;5039436;28;20649;-85
2023/11/21 05:40:32;;;;;;;11.80;9.70;;;9.80;99.90;;;;;;5037878;28;20574;-86
2023/11/21 05:43:00;;;;;;;12.70;9.55;;;9.70;99.90;;;;;;5041136;28;20211;-86
2023/11/21 05:45:28;;;;;;;10.30;9.20;;;9.60;99.90;;;;;;5037199;28;20335;-85
2023/11/21 05:47:55;;;;;;;10.30;8.30;;;9.70;99.90;;;;;;5043551;28;20887;-85
2023/11/21 05:50:24;;;;;;;12.00;9.60;;;9.70;99.90;;;;;;5039894;28;20233;-85
2023/11/21 05:52:51;;;;;;;12.80;9.23;;;9.60;99.90;;;;;;5037475;28;20208;-86
2023/11/21 05:55:20;;;;;;;12.48;8.10;;;9.60;99.90;;;;;;5038500;28;20321;-86
2023/11/21 05:57:47;;;;;;;13.85;10.40;;;9.60;99.90;;;;;;5034632;28;20258;-85
2023/11/21 06:00:20;;;;;;;15.23;10.15;;;9.60;99.90;;;;;;5035552;28;20201;-86
2023/11/21 06:02:50;;;;;;;16.05;9.15;;;9.60;99.90;;;;;;5026348;28;20216;-87
2023/11/21 06:05:18;;;;;;;11.55;7.90;;;9.40;99.90;;;;;;5043108;28;20228;-85
2023/11/21 06:07:46;;;;;;;9.85;8.15;;;9.30;99.90;;;;;;5042902;28;20212;-85
2023/11/21 06:10:14;;;;;;;12.18;8.93;;;9.20;99.90;;;;;;5048095;28;20255;-85
2023/11/21 06:12:42;;;;;;;11.30;9.20;;;9.20;99.90;;;;;;5054509;28;20188;-86
2023/11/21 06:15:13;;;;;;;13.97;8.80;;;9.20;99.90;;;;;;5056227;28;20268;-85
2023/11/21 06:17:40;;;;;;;9.50;8.02;;;9.20;99.90;;;;;;5057266;28;20464;-86
2023/11/21 06:20:11;;;;;;;12.10;9.48;;;9.20;99.90;;;;;;5060291;28;20209;-84
2023/11/21 06:22:38;;;;;;;15.68;8.25;;;9.00;99.90;;;;;;5060812;28;20185;-84
2023/11/21 06:25:13;;;;;;;12.05;8.93;;;9.20;99.90;;;;;;5058457;28;20208;-84
2023/11/21 06:27:41;;;;;;;12.00;8.93;;;9.20;99.90;;;;;;5047837;28;20237;-86
2023/11/21 06:30:09;;;;;;;16.00;7.85;;;9.10;99.90;;;;;;5060126;28;20196;-86
2023/11/21 06:32:36;;;;;;;12.00;8.38;;;9.00;99.90;;;;;;5060387;28;20193;-83
2023/11/21 06:35:04;;;;;;;11.45;10.20;;;9.00;99.90;;;;;;5052534;28;20212;-84
2023/11/21 06:37:31;;;;;;;12.75;9.43;;;8.90;99.90;;;;;;5060433;28;20235;-83
2023/11/21 06:39:59;;;;;;;11.27;8.90;;;8.90;99.90;;;;;;5059927;28;20200;-84
2023/11/21 06:42:28;;;;;;;12.68;10.95;;;9.00;99.90;;;;;;5054875;28;20194;-85
2023/11/21 06:44:57;;;;;;;13.25;10.27;;;8.90;99.90;;;;;;5052430;28;20188;-85
2023/11/21 06:47:24;;;;;;;14.90;10.80;;;8.90;99.90;;;;;;5048424;28;20208;-83
2023/11/21 06:49:52;;;;;;;12.02;10.60;;;8.90;99.90;;;;;;5047368;28;20184;-85
2023/11/21 06:52:20;;;;;;;12.27;9.32;;;8.90;99.90;;;;;;5053276;28;20181;-82
2023/11/21 06:54:49;;;;;;;12.32;9.90;;;9.00;99.90;;;;;;5052139;28;20262;-84
2023/11/21 06:57:16;;;;;;;11.57;9.25;;;9.00;99.90;;;;;;5055629;28;20232;-85
2023/11/21 06:59:48;;;;;;;11.60;9.88;;;8.90;99.90;;;;;;5045215;28;20267;-85
2023/11/21 07:02:18;;;;;;;14.55;10.60;;;8.80;99.90;;;;;;5049294;28;20189;-86
2023/11/21 07:04:46;;;;;;;12.35;10.27;;;8.90;99.90;;;;;;5049091;28;20196;-86
2023/11/21 07:07:18;;;;;;;14.27;11.88;;;8.90;99.90;;;;;;5043827;28;20255;-85
2023/11/21 07:09:49;;;;;;;15.43;9.18;;;8.90;99.90;;;;;;5035133;28;20679;-85
2023/11/21 07:12:16;;;;;;;13.23;10.18;;;8.90;99.90;;;;;;5038348;28;20664;-86
2023/11/21 07:14:46;;;;;;;11.80;9.63;;;8.90;99.90;;;;;;5042707;28;20231;-86
2023/11/21 07:17:13;;;;;;;10.93;9.55;;;8.90;99.90;;;;;;5037899;28;20292;-86
2023/11/21 07:19:41;;;;;;;10.95;8.85;;;9.10;99.90;;;;;;5042572;28;20204;-86
2023/11/21 07:22:11;;;;;;;16.27;11.43;;;9.00;99.90;;;;;;5043727;28;20209;-85
2023/11/21 07:24:38;;;;;;;17.25;11.05;;;9.10;99.90;;;;;;5033270;28;20229;-86
2023/11/21 07:27:05;;;;;;;13.18;9.77;;;9.10;99.90;;;;;;5031911;28;20631;-83
2023/11/21 07:29:43;;;;;;;13.38;11.02;;;8.80;99.90;;;;;;5036270;28;20264;-85
2023/11/21 07:32:13;;;;;;;15.65;11.73;;;9.00;99.90;;;;;;5046241;28;20270;-84
2023/11/21 07:34:40;;;;;;;13.93;10.68;;;8.90;99.90;;;;;;5044064;28;20232;-86
2023/11/21 07:37:07;;;;;;;12.88;10.93;;;8.90;99.90;;;;;;5042116;28;20250;-85
2023/11/21 07:39:33;;;;;;;13.50;10.68;;;8.80;99.90;;;;;;5040233;28;20206;-85
2023/11/21 07:42:00;;;;;;;15.88;11.90;;;8.80;99.90;;;;;;5028217;28;20240;-86
2023/11/21 07:44:27;;;;;;;12.77;10.63;;;9.00;99.90;;;;;;5042076;28;20271;-84
2023/11/21 07:46:57;;;;;;;14.68;11.55;;;9.10;99.90;;;;;;5043209;28;20220;-85
2023/11/21 07:49:29;;;;;;;12.75;10.60;;;9.00;99.90;;;;;;5042676;28;20197;-85
2023/11/21 07:52:00;;;;;;;18.25;12.55;;;9.00;99.90;;;;;;5033568;28;20228;-89
2023/11/21 07:54:29;;;;;;;12.23;10.23;;;9.00;99.90;;;;;;5044377;28;20271;-84
2023/11/21 07:56:56;;;;;;;15.32;10.77;;;9.00;99.90;;;;;;5040056;28;20302;-87
2023/11/21 07:59:23;;;;;;;14.27;11.40;;;9.00;99.90;;;;;;5046525;28;20200;-84
2023/11/21 08:01:50;;;;;;;25.77;12.32;;;9.00;99.90;;;;;;5042476;28;20205;-83
2023/11/21 08:04:18;;;;;;;16.08;11.70;;;9.10;99.90;;;;;;5039563;28;20232;-83
2023/11/21 08:06:47;;;;;;;13.65;10.27;;;9.20;99.90;;;;;;5046359;28;20233;-84
2023/11/21 08:09:15;;;;;;;11.20;10.02;;;9.20;99.90;;;;;;5049163;28;20197;-84
2023/11/21 08:11:42;;;;;;;14.40;11.25;;;9.40;99.90;;;;;;5051467;28;20205;-84
2023/11/21 08:14:09;;;;;;;12.38;9.98;;;9.30;99.90;;;;;;5048847;28;20201;-84
2023/11/21 08:16:36;;;;;;;15.63;11.63;;;9.40;99.90;;;;;;5052964;28;20475;-85
2023/11/21 08:19:03;;;;;;;14.23;11.52;;;9.30;99.90;;;;;;5050300;28;20204;-84
2023/11/21 08:21:31;;;;;;;13.75;9.35;;;9.20;99.90;;;;;;5045982;28;20188;-85
2023/11/21 08:24:00;;;;;;;13.15;9.80;;;9.30;99.90;;;;;;5036455;28;20235;-84
2023/11/21 08:26:28;;;;;;;12.50;10.63;;;9.30;99.90;;;;;;5045318;28;20224;-84
2023/11/21 08:29:00;;;;;;;11.60;10.02;;;9.30;99.90;;;;;;5043523;28;20268;-85
2023/11/21 08:31:28;;;;;;;11.88;9.82;;;9.40;99.90;;;;;;5042831;28;20244;-84
2023/11/21 08:33:55;;;;;;;12.50;10.13;;;9.50;99.90;;;;;;5043872;28;20220;-86
2023/11/21 08:36:23;;;;;;;15.27;11.65;;;9.50;99.90;;;;;;5048527;28;20700;-85
2023/11/21 08:38:52;;;;;;;11.85;9.30;;;9.50;99.90;;;;;;5049541;28;20234;-84
2023/11/21 08:41:21;;;;;;;13.90;9.55;;;9.60;99.90;;;;;;5040004;28;20216;-83
2023/11/21 08:43:49;;;;;;;12.48;9.85;;;9.80;99.90;;;;;;5039280;28;20304;-83
2023/11/21 08:46:16;;;;;;;18.90;12.05;;;9.80;99.90;;;;;;5044656;28;20201;-85
2023/11/21 08:48:46;;;;;;;16.50;11.63;;;9.90;99.90;;;;;;5045627;28;20220;-86
2023/11/21 08:51:16;;;;;;;15.38;11.02;;;10.00;99.90;;;;;;5044847;28;20215;-84
2023/11/21 08:53:45;;;;;;;13.57;10.88;;;10.00;99.90;;;;;;5036182;28;20444;-86
2023/11/21 08:56:30;;;;;;;10.93;9.80;;;9.90;99.90;;;;;;5048920;28;20227;-83
2023/11/21 08:59:00;;;;;;;14.68;11.18;;;10.00;99.90;;;;;;5045442;28;20432;-84
2023/11/21 09:01:36;;;;;;;11.65;10.45;;;10.20;99.90;;;;;;5049371;28;20219;-85
2023/11/21 09:04:08;;;;;;;12.52;9.52;;;10.30;99.90;;;;;;5041410;28;20208;-85
2023/11/21 09:06:35;;;;;;;13.85;11.05;;;10.20;99.90;;;;;;5046871;28;20228;-84
2023/11/21 09:09:04;;;;;;;14.30;10.02;;;10.10;99.90;;;;;;5049495;28;20187;-86
2023/11/21 09:11:33;;;;;;;12.45;9.55;;;10.10;99.90;;;;;;5040305;28;20233;-85
2023/11/21 09:14:00;;;;;;;11.98;9.43;;;10.20;99.90;;;;;;5048441;28;20268;-85
2023/11/21 09:16:31;;;;;;;12.32;10.52;;;10.20;99.90;;;;;;5048729;28;20233;-85
2023/11/21 09:18:59;;;;;;;15.00;10.63;;;10.30;99.90;;;;;;5044377;28;20688;-87
2023/11/21 09:21:26;;;;;;;11.77;9.47;;;10.40;99.90;;;;;;5042001;28;20242;-84
2023/11/21 09:23:53;;;;;;;14.73;10.25;;;10.40;99.90;;;;;;5038256;28;20964;-86
2023/11/21 09:26:20;;;;;;;13.80;10.90;;;10.40;99.90;;;;;;5045986;28;20667;-85
2023/11/21 09:28:49;;;;;;;14.00;9.80;;;10.60;99.90;;;;;;5050158;28;20228;-85
2023/11/21 09:31:16;;;;;;;13.02;9.70;;;10.70;99.90;;;;;;5042481;28;20210;-85
2023/11/21 09:33:44;;;;;;;12.05;9.35;;;10.70;99.90;;;;;;5044863;28;20270;-85
2023/11/21 09:36:14;;;;;;;12.15;10.50;;;10.80;99.90;;;;;;5048797;28;20317;-84
2023/11/21 09:38:42;;;;;;;15.73;10.68;;;10.80;99.90;;;;;;5049268;28;20216;-86
2023/11/21 09:41:29;;;;;;;11.73;10.23;;;10.70;99.90;;;;;;5047316;28;20272;-85
2023/11/21 09:44:00;;;;;;;12.55;8.98;;;10.70;99.90;;;;;;5050202;28;20205;-84
2023/11/21 09:46:29;;;;;;;14.23;9.82;;;10.60;99.90;;;;;;5049639;28;20231;-85
2023/11/21 09:49:01;;;;;;;11.60;9.70;;;10.50;99.90;;;;;;5045934;28;20202;-86
2023/11/21 09:51:33;;;;;;;12.30;9.48;;;10.30;99.90;;;;;;5051670;28;20219;-84
2023/11/21 09:54:02;;;;;;;11.88;9.40;;;10.40;99.90;;;;;;5054763;28;20197;-84
2023/11/21 09:56:29;;;;;;;12.18;10.68;;;10.30;99.90;;;;;;5051187;28;20235;-83
2023/11/21 09:58:58;;;;;;;14.33;9.97;;;10.40;99.90;;;;;;5044418;28;20202;-81
2023/11/21 10:01:27;;;;;;;12.50;9.50;;;10.50;99.90;;;;;;5055852;28;20495;-81
2023/11/21 10:03:54;;;;;;;11.18;9.05;;;10.60;99.90;;;;;;5045525;28;20208;-81
2023/11/21 10:06:21;;;;;;;12.75;9.23;;;10.60;99.90;;;;;;5044737;28;20206;-81
2023/11/21 10:08:50;;;;;;;10.65;9.07;;;10.60;99.90;;;;;;5047489;28;20198;-87
2023/11/21 10:11:21;;;;;;;12.10;9.07;;;10.60;99.90;;;;;;5050385;28;20193;-83
2023/11/21 10:13:50;;;;;;;12.30;9.50;;;10.60;99.90;;;;;;5047612;28;20249;-85
2023/11/21 10:16:21;;;;;;;15.10;9.35;;;10.70;99.90;;;;;;5049827;28;20209;-83
2023/11/21 10:18:51;;;;;;;13.68;10.27;;;10.60;99.90;;;;;;5048738;28;20205;-84
2023/11/21 10:21:19;;;;;;;11.38;9.63;;;10.50;99.90;;;;;;5045591;28;20193;-81
2023/11/21 10:23:46;;;;;;;11.13;9.93;;;10.50;99.90;;;;;;5050100;28;20205;-84
2023/11/21 10:26:16;;;;;;;11.98;9.10;;;10.50;99.90;;;;;;5040437;28;20492;-85
2023/11/21 10:28:43;;;;;;;10.45;8.75;;;10.50;99.90;;;;;;5045420;28;20609;-86
2023/11/21 10:31:10;;;;;;;13.57;10.18;;;10.50;99.90;;;;;;5049530;28;20210;-85
2023/11/21 10:33:39;;;;;;;12.23;9.88;;;10.60;99.90;;;;;;5044419;28;20613;-86
2023/11/21 10:36:08;;;;;;;11.70;9.43;;;10.60;99.90;;;;;;5047524;28;20225;-85
2023/11/21 10:38:45;;;;;;;13.20;9.60;;;10.60;99.90;;;;;;5040802;28;20266;-85
2023/11/21 10:41:15;;;;;;;11.57;9.65;;;10.60;99.90;;;;;;5041889;28;20194;-84
2023/11/21 10:43:42;;;;;;;14.23;9.18;;;10.60;99.90;;;;;;5054629;28;20188;-82
2023/11/21 10:46:11;;;;;;;11.38;9.50;;;10.60;99.90;;;;;;5052677;28;20596;-85
2023/11/21 10:48:46;;;;;;;10.55;9.30;;;10.70;99.90;;;;;;5047267;28;20208;-85
2023/11/21 10:51:16;;;;;;;13.50;9.43;;;10.70;99.90;;;;;;5046150;28;20200;-85
2023/11/21 10:53:45;;;;;;;14.05;8.95;;;10.80;99.90;;;;;;5043295;28;20285;-85
2023/11/21 10:56:17;;;;;;;11.30;8.40;;;10.90;99.90;;;;;;5040334;28;20225;-85
2023/11/21 10:58:44;;;;;;;10.80;8.10;;;10.90;99.90;;;;;;5046473;28;20392;-84
2023/11/21 11:01:14;;;;;;;9.95;8.65;;;10.90;99.90;;;;;;5041779;28;20240;-84
2023/11/21 11:03:43;;;;;;;12.93;8.83;;;10.90;99.90;;;;;;5045191;28;20200;-87
2023/11/21 11:06:12;;;;;;;13.05;9.50;;;11.10;99.90;;;;;;5041212;28;20479;-83
2023/11/21 11:08:39;;;;;;;16.27;9.90;;;11.20;99.90;;;;;;5049095;28;20223;-85
2023/11/21 11:11:06;;;;;;;11.30;9.90;;;11.20;99.90;;;;;;5046746;28;20203;-85
2023/11/21 11:13:33;;;;;;;12.70;9.13;;;11.20;99.90;;;;;;5048555;28;20277;-84
2023/11/21 11:16:02;;;;;;;13.07;10.60;;;11.20;99.90;;;;;;5053944;28;20232;-84
2023/11/21 11:18:30;;;;;;;10.13;9.02;;;11.10;99.90;;;;;;5049978;28;20238;-84
2023/11/21 11:21:07;;;;;;;21.35;8.48;;;11.20;99.90;;;;;;5046340;28;20247;-83
2023/11/21 11:23:47;;;;;;;10.25;8.43;;;11.20;99.90;;;;;;5048672;28;20222;-83
2023/11/21 11:26:26;;;;;;;9.23;7.18;;;11.30;99.90;;;;;;5042298;28;20281;-83
2023/11/21 11:29:02;;;;;;;12.57;7.85;;;11.30;99.90;;;;;;5057768;28;20212;-83
2023/11/21 11:31:40;;;;;;;11.57;9.25;;;11.30;99.90;;;;;;5053998;28;20215;-82
2023/11/21 11:34:27;;;;;;;9.40;8.40;;;11.30;99.90;;;;;;5052574;28;20262;-83
2023/11/21 11:37:02;;;;;;;11.30;8.35;;;11.20;99.90;;;;;;5054857;28;20236;-86
2023/11/21 11:39:30;;;;;;;18.45;9.00;;;11.20;99.90;;;;;;5054491;28;20250;-84
2023/11/21 11:41:58;;;;;;;10.30;8.43;;;11.40;99.90;;;;;;5051578;28;20208;-86
2023/11/21 11:44:55;;;;;;;14.13;9.40;;;11.20;99.90;;;;;;5046978;28;20238;-83
2023/11/21 11:47:24;;;;;;;9.85;8.38;;;11.10;99.90;;;;;;5056427;28;20225;-85
2023/11/21 11:50:12;;;;;;;25.13;8.82;;;11.20;99.90;;;;;;5051957;28;20196;-85
2023/11/21 11:52:41;;;;;;;13.40;8.80;;;11.30;99.90;;;;;;5046147;28;20220;-83
2023/11/21 11:55:10;;;;;;;11.82;8.27;;;11.30;99.90;;;;;;5053654;28;20187;-87
2023/11/21 11:57:39;;;;;;;9.98;7.70;;;11.50;99.90;;;;;;5040051;28;20216;-85
2023/11/21 12:00:15;;;;;;;13.90;7.75;;;11.50;99.90;;;;;;5048945;28;20261;-85
2023/11/21 12:02:43;;;;;;;9.00;7.90;;;11.60;99.90;;;;;;5048060;28;20196;-86
2023/11/21 12:05:12;;;;;;;9.95;8.93;;;11.60;99.90;;;;;;5052434;28;20200;-85
2023/11/21 12:07:46;;;;;;;7.85;7.10;;;11.70;99.90;;;;;;5047871;28;20231;-82
2023/11/21 12:10:17;;;;;;;7.50;6.80;;;11.60;99.90;;;;;;5037657;28;20260;-85
2023/11/21 12:12:46;;;;;;;9.23;6.82;;;11.60;99.90;;;;;;5049161;28;20208;-86
2023/11/21 12:15:13;;;;;;;12.80;7.75;;;11.60;99.90;;;;;;5048774;28;20200;-88
2023/11/21 12:17:43;;;;;;;8.13;6.65;;;11.50;99.90;;;;;;5048506;28;20287;-86
2023/11/21 12:20:15;;;;;;;10.23;6.43;;;11.50;99.90;;;;;;5039044;28;20201;-87
2023/11/21 12:22:47;;;;;;;13.68;8.02;;;11.40;99.90;;;;;;5043375;28;20213;-85
2023/11/21 12:25:16;;;;;;;10.52;7.07;;;11.20;99.90;;;;;;5041339;28;20228;-84
2023/11/21 12:27:44;;;;;;;7.40;6.05;;;11.10;99.90;;;;;;5049219;28;20292;-86
2023/11/21 12:30:15;;;;;;;9.40;6.45;;;11.00;99.90;;;;;;5047628;28;20234;-85
2023/11/21 12:32:43;;;;;;;7.32;5.72;;;10.90;99.90;;;;;;5040967;28;20199;-85
2023/11/21 12:35:11;;;;;;;10.75;5.97;;;10.80;99.90;;;;;;5049058;28;20229;-85
2023/11/21 12:37:39;;;;;;;7.93;5.90;;;10.70;99.90;;;;;;5046758;28;20231;-84
2023/11/21 12:40:11;;;;;;;6.72;5.18;;;10.70;99.90;;;;;;5043745;28;20770;-85